Time;durP1;ratioP1;P1;durP2;ratioP2;P2;SDS_P1;SDS_P2;PMS_P1;PMS_P2;Temp;Humidity;BMP_temperature;BMP_pressure;BME280_temperature;BME280_humidity;BME280_pressure;Samples;Min_cycle;Max_cycle;Signal;HPM_P1;HPM_P2
2024/02/07 00:01:00;;;;;;;1999.90;999.90;;;13.00;99.90;;;;;;5082907;28;20041;-73
2024/02/07 00:03:26;;;;;;;1999.90;999.90;;;12.90;99.90;;;;;;5073182;28;20025;-68
2024/02/07 00:05:52;;;;;;;1999.90;999.90;;;12.90;99.90;;;;;;5072480;28;20482;-68
2024/02/07 00:08:17;;;;;;;1999.90;999.90;;;12.80;99.90;;;;;;5072944;28;20024;-73
2024/02/07 00:10:43;;;;;;;1999.90;999.90;;;12.90;99.90;;;;;;5072954;28;20029;-73
2024/02/07 00:13:09;;;;;;;1999.90;999.90;;;12.80;99.90;;;;;;5073339;28;20060;-68
2024/02/07 00:15:34;;;;;;;1999.90;999.90;;;12.80;99.90;;;;;;5073446;28;20025;-68
2024/02/07 00:18:00;;;;;;;1999.90;999.90;;;12.80;99.90;;;;;;5072307;28;20538;-68
2024/02/07 00:20:25;;;;;;;1999.90;999.90;;;12.80;99.90;;;;;;5073125;28;20036;-72
2024/02/07 00:22:51;;;;;;;1999.90;999.90;;;12.80;99.90;;;;;;5072925;28;20049;-73
2024/02/07 00:25:17;;;;;;;1999.90;999.90;;;12.70;99.90;;;;;;5073336;28;20067;-68
2024/02/07 00:27:42;;;;;;;1999.90;999.90;;;12.80;99.90;;;;;;5072973;28;20028;-72
2024/02/07 00:30:10;;;;;;;1999.90;999.90;;;12.80;99.90;;;;;;5072872;28;20040;-73
2024/02/07 00:32:35;;;;;;;1999.90;999.90;;;12.80;99.90;;;;;;5072925;28;20106;-68
2024/02/07 00:35:01;;;;;;;1999.90;999.90;;;12.80;99.90;;;;;;5072860;28;20056;-67
2024/02/07 00:37:27;;;;;;;1999.90;999.90;;;12.80;99.90;;;;;;5073164;28;20035;-73
2024/02/07 00:39:52;;;;;;;1999.90;999.90;;;12.80;99.90;;;;;;5072746;28;20028;-68
2024/02/07 00:42:18;;;;;;;1999.90;999.90;;;12.80;99.90;;;;;;5072693;28;20059;-69
2024/02/07 00:44:44;;;;;;;1999.90;999.90;;;12.70;99.90;;;;;;5072576;28;20066;-68
2024/02/07 00:47:11;;;;;;;1999.90;999.90;;;12.70;99.90;;;;;;5072738;28;20056;-73
2024/02/07 00:49:37;;;;;;;1999.90;999.90;;;12.70;99.90;;;;;;5072305;28;20487;-73
2024/02/07 00:52:04;;;;;;;1999.90;999.90;;;12.60;99.90;;;;;;5072915;28;20036;-68
2024/02/07 00:54:29;;;;;;;1999.90;999.90;;;12.60;99.90;;;;;;5072677;28;20028;-68
2024/02/07 00:56:55;;;;;;;1999.90;999.90;;;12.50;99.90;;;;;;5072130;28;20025;-68
2024/02/07 00:59:21;;;;;;;1999.90;999.90;;;12.50;99.90;;;;;;5083642;28;20036;-73
2024/02/07 01:01:46;;;;;;;1999.90;999.90;;;12.50;99.90;;;;;;5072072;28;20115;-68
2024/02/07 01:04:12;;;;;;;1999.90;999.90;;;12.40;99.90;;;;;;5072473;28;20060;-73
2024/02/07 01:06:41;;;;;;;1999.90;999.90;;;12.40;99.90;;;;;;5072287;28;20052;-73
2024/02/07 01:09:06;;;;;;;1999.90;999.90;;;12.40;99.90;;;;;;5072288;28;20064;-68
2024/02/07 01:11:32;;;;;;;1999.90;999.90;;;12.50;99.90;;;;;;5072048;28;20515;-68
2024/02/07 01:13:58;;;;;;;1999.90;999.90;;;12.60;99.90;;;;;;5071912;28;20024;-73
2024/02/07 01:16:23;;;;;;;1999.90;999.90;;;12.60;99.90;;;;;;5072813;28;20020;-73
2024/02/07 01:18:51;;;;;;;1999.90;999.90;;;12.70;99.90;;;;;;5072555;28;20380;-68
2024/02/07 01:21:16;;;;;;;1999.90;999.90;;;12.70;99.90;;;;;;5072774;28;20033;-68
2024/02/07 01:23:46;;;;;;;1999.90;999.90;;;12.70;99.90;;;;;;5072066;28;20415;-68
2024/02/07 01:26:13;;;;;;;1999.90;999.90;;;12.70;99.90;;;;;;5072599;28;20398;-73
2024/02/07 01:28:39;;;;;;;1999.90;999.90;;;12.70;99.90;;;;;;5072063;28;20360;-73
2024/02/07 01:31:06;;;;;;;1999.90;999.90;;;12.70;99.90;;;;;;5072591;28;20060;-68
2024/02/07 01:33:31;;;;;;;1999.90;999.90;;;12.70;99.90;;;;;;5072087;28;20484;-68
2024/02/07 01:35:58;;;;;;;1999.90;999.90;;;12.70;99.90;;;;;;5072137;28;20031;-68
2024/02/07 01:38:24;;;;;;;1999.90;999.90;;;12.80;99.90;;;;;;5072130;28;20043;-73
2024/02/07 01:40:49;;;;;;;1999.90;999.90;;;12.80;99.90;;;;;;5072077;28;20028;-68
2024/02/07 01:43:15;;;;;;;1999.90;999.90;;;12.80;99.90;;;;;;5072568;28;20456;-68
2024/02/07 01:45:41;;;;;;;1999.90;999.90;;;12.90;99.90;;;;;;5072251;28;20499;-68
2024/02/07 01:48:07;;;;;;;1999.90;999.90;;;12.90;99.90;;;;;;5072145;28;20167;-68
2024/02/07 01:50:40;;;;;;;1999.90;999.90;;;12.90;99.90;;;;;;5071943;28;20017;-68
2024/02/07 01:53:10;;;;;;;1999.90;999.90;;;12.90;99.90;;;;;;5072200;28;20024;-68
2024/02/07 01:55:36;;;;;;;1999.90;999.90;;;12.90;99.90;;;;;;5071983;28;20071;-68
2024/02/07 01:58:03;;;;;;;1999.90;999.90;;;12.90;99.90;;;;;;5075685;28;20025;-73
2024/02/07 02:00:31;;;;;;;1999.90;999.90;;;12.90;99.90;;;;;;5080902;28;20483;-68
2024/02/07 02:02:58;;;;;;;1999.90;999.90;;;12.80;99.90;;;;;;5071688;28;20029;-68
2024/02/07 02:05:24;;;;;;;1999.90;999.90;;;12.80;99.90;;;;;;5071385;28;20503;-73
2024/02/07 02:07:50;;;;;;;1999.90;999.90;;;12.80;99.90;;;;;;5072203;28;20450;-73
2024/02/07 02:10:17;;;;;;;1999.90;999.90;;;12.80;99.90;;;;;;5071672;28;20029;-72
2024/02/07 02:12:43;;;;;;;1999.90;999.90;;;12.70;99.90;;;;;;5072534;28;20158;-68
2024/02/07 02:15:09;;;;;;;1999.90;999.90;;;12.70;99.90;;;;;;5075445;28;20485;-68
2024/02/07 02:17:35;;;;;;;1999.90;999.90;;;12.70;99.90;;;;;;5075361;28;20047;-73
2024/02/07 02:20:02;;;;;;;1999.90;999.90;;;12.80;99.90;;;;;;5075287;28;20025;-73
2024/02/07 02:23:19;;;;;;;1999.90;999.90;;;12.80;99.90;;;;;;5075281;28;20032;-73
2024/02/07 02:26:02;;;;;;;1999.90;999.90;;;12.80;99.90;;;;;;5068888;28;20036;-68
2024/02/07 02:28:52;;;;;;;;;;;12.80;99.90;;;;;;5075462;28;20111;-68
2024/02/07 02:31:18;;;;;;;1999.90;999.90;;;12.80;99.90;;;;;;5074868;28;20349;-73
2024/02/07 02:33:48;;;;;;;1999.90;999.90;;;12.80;99.90;;;;;;5075004;28;20048;-73
2024/02/07 02:36:15;;;;;;;1999.90;999.90;;;12.90;99.90;;;;;;5075206;28;20395;-68
2024/02/07 02:38:40;;;;;;;1999.90;999.90;;;12.90;99.90;;;;;;5074624;28;20475;-68
2024/02/07 02:41:09;;;;;;;1999.90;999.90;;;12.90;99.90;;;;;;5074877;28;20093;-68
2024/02/07 02:43:37;;;;;;;1999.90;999.90;;;12.90;99.90;;;;;;5075196;28;20151;-68
2024/02/07 02:46:04;;;;;;;1999.90;999.90;;;12.90;99.90;;;;;;5075180;28;20165;-68
2024/02/07 02:48:29;;;;;;;1999.90;999.90;;;12.90;99.90;;;;;;5074625;28;20562;-68
2024/02/07 02:50:55;;;;;;;1999.90;999.90;;;12.90;99.90;;;;;;5074621;28;20107;-68
2024/02/07 02:53:21;;;;;;;1999.90;999.90;;;12.90;99.90;;;;;;5074503;28;20023;-68
2024/02/07 02:55:47;;;;;;;1999.90;999.90;;;12.90;99.90;;;;;;5074665;28;20086;-68
2024/02/07 02:58:13;;;;;;;1999.90;999.90;;;12.90;99.90;;;;;;5078201;28;20477;-68
2024/02/07 03:00:38;;;;;;;1999.90;999.90;;;12.90;99.90;;;;;;5076540;28;20035;-72
2024/02/07 03:03:04;;;;;;;1999.90;999.90;;;12.90;99.90;;;;;;5074772;28;20074;-68
2024/02/07 03:06:18;;;;;;;1999.90;999.90;;;12.90;99.90;;;;;;5074291;28;20404;-68
2024/02/07 03:08:16;;;;;;;1999.90;999.90;;;12.90;99.90;;;;;;5067116;28;20124;-68
2024/02/07 03:10:43;;;;;;;1999.90;999.90;;;12.90;99.90;;;;;;5074161;28;20104;-73
2024/02/07 03:13:10;;;;;;;1999.90;999.90;;;12.80;99.90;;;;;;5074688;28;20021;-73
2024/02/07 03:15:36;;;;;;;1999.90;999.90;;;12.80;99.90;;;;;;5074498;28;20033;-68
2024/02/07 03:18:01;;;;;;;1999.90;999.90;;;12.80;99.90;;;;;;5073451;28;20081;-68
2024/02/07 03:20:28;;;;;;;1999.90;999.90;;;12.80;99.90;;;;;;5074257;28;20103;-68
2024/02/07 03:22:56;;;;;;;1999.90;999.90;;;12.80;99.90;;;;;;5074092;28;20059;-73
2024/02/07 03:25:22;;;;;;;1999.90;999.90;;;12.80;99.90;;;;;;5073031;28;20098;-68
2024/02/07 03:27:51;;;;;;;1999.90;999.90;;;12.80;99.90;;;;;;5073868;28;20037;-68
2024/02/07 03:30:20;;;;;;;1999.90;999.90;;;12.70;99.90;;;;;;5074273;28;20400;-69
2024/02/07 03:32:46;;;;;;;1999.90;999.90;;;12.60;99.90;;;;;;5074083;28;20118;-68
2024/02/07 03:35:13;;;;;;;1999.90;999.90;;;12.60;99.90;;;;;;5073888;28;20090;-73
2024/02/07 03:37:40;;;;;;;1999.90;999.90;;;12.60;99.90;;;;;;5074010;28;20391;-68
2024/02/07 03:40:12;;;;;;;1999.90;999.90;;;12.60;99.90;;;;;;5073966;28;20056;-68
2024/02/07 03:42:41;;;;;;;1999.90;999.90;;;12.60;99.90;;;;;;5073705;28;20036;-73
2024/02/07 03:45:08;;;;;;;1999.90;999.90;;;12.60;99.90;;;;;;5073630;28;20028;-73
2024/02/07 03:47:34;;;;;;;1999.90;999.90;;;12.50;99.90;;;;;;5073648;28;20017;-68
2024/02/07 03:50:04;;;;;;;1999.90;999.90;;;12.50;99.90;;;;;;5073629;28;20056;-68
2024/02/07 03:52:30;;;;;;;1999.90;999.90;;;12.50;99.90;;;;;;5073783;28;20033;-73
2024/02/07 03:54:55;;;;;;;1999.90;999.90;;;12.50;99.90;;;;;;5073818;28;20396;-73
2024/02/07 03:57:21;;;;;;;1999.90;999.90;;;12.50;99.90;;;;;;5074756;28;20028;-68
2024/02/07 03:59:47;;;;;;;1999.90;999.90;;;12.50;99.90;;;;;;5084444;28;20381;-68
2024/02/07 04:02:23;;;;;;;1999.90;999.90;;;12.40;99.90;;;;;;5072670;28;20395;-72
2024/02/07 04:04:52;;;;;;;1999.90;999.90;;;12.40;99.90;;;;;;5073002;28;20074;-73
2024/02/07 04:07:25;;;;;;;1999.90;999.90;;;12.40;99.90;;;;;;5073393;28;20044;-68
2024/02/07 04:09:52;;;;;;;;;;;12.40;99.90;;;;;;5073325;28;20086;-68
2024/02/07 05:17:23;;;;;;;1999.90;999.90;;;12.20;99.90;;;;;;5072719;28;20024;-68
2024/02/07 05:19:49;;;;;;;1999.90;999.90;;;12.20;99.90;;;;;;5072374;28;20031;-73
2024/02/07 05:22:18;;;;;;;1999.90;999.90;;;12.20;99.90;;;;;;5072664;28;20040;-68
2024/02/07 05:24:49;;;;;;;1999.90;999.90;;;12.20;99.90;;;;;;5072600;28;20039;-73
2024/02/07 05:27:16;;;;;;;1999.90;999.90;;;12.20;99.90;;;;;;5072412;28;20059;-69
2024/02/07 05:29:42;;;;;;;1999.90;999.90;;;12.20;99.90;;;;;;5071314;28;20479;-68
2024/02/07 05:32:08;;;;;;;1999.90;999.90;;;12.10;99.90;;;;;;5071972;28;20513;-68
2024/02/07 05:34:37;;;;;;;1999.90;999.90;;;12.10;99.90;;;;;;5072152;28;20056;-73
2024/02/07 05:37:03;;;;;;;1999.90;999.90;;;12.10;99.90;;;;;;5072333;28;20399;-68
2024/02/07 05:39:33;;;;;;;1999.90;999.90;;;12.10;99.90;;;;;;5072226;28;20387;-68
2024/02/07 05:42:00;;;;;;;1999.90;999.90;;;12.10;99.90;;;;;;5072317;28;20131;-68
2024/02/07 05:44:25;;;;;;;1999.90;999.90;;;12.10;99.90;;;;;;5072376;28;20051;-68
2024/02/07 05:46:51;;;;;;;1999.90;999.90;;;12.10;99.90;;;;;;5072244;28;20479;-68
2024/02/07 05:49:17;;;;;;;1999.90;999.90;;;12.10;99.90;;;;;;5075019;28;20180;-73
2024/02/07 05:51:42;;;;;;;1999.90;999.90;;;12.00;99.90;;;;;;5073892;28;20194;-73
2024/02/07 05:54:08;;;;;;;1999.90;999.90;;;12.00;99.90;;;;;;5075816;28;20550;-68
2024/02/07 05:56:34;;;;;;;1999.90;999.90;;;12.00;99.90;;;;;;5078457;28;20031;-68
2024/02/07 05:59:00;;;;;;;1999.90;999.90;;;12.00;99.90;;;;;;5081199;28;20422;-74
2024/02/07 06:01:29;;;;;;;1999.90;999.90;;;12.00;99.90;;;;;;5076173;28;20024;-73
2024/02/07 06:03:55;;;;;;;1999.90;999.90;;;12.00;99.90;;;;;;5075330;28;20036;-68
2024/02/07 06:06:23;;;;;;;1999.90;999.90;;;12.00;99.90;;;;;;5075444;28;20059;-68
2024/02/07 06:08:51;;;;;;;1999.90;999.90;;;12.00;99.90;;;;;;5074979;28;20028;-73
2024/02/07 06:11:17;;;;;;;1999.90;999.90;;;12.00;99.90;;;;;;5089996;28;20027;-68
2024/02/07 06:13:44;;;;;;;1999.90;999.90;;;12.00;99.90;;;;;;5095863;28;20020;-68
2024/02/07 06:16:10;;;;;;;1999.90;999.90;;;12.00;99.90;;;;;;5095119;28;20028;-68
2024/02/07 06:18:35;;;;;;;1999.90;999.90;;;12.10;99.90;;;;;;5095590;28;20502;-73
2024/02/07 06:21:04;;;;;;;1999.90;999.90;;;12.00;99.90;;;;;;5070077;28;20039;-68
2024/02/07 06:23:30;;;;;;;1999.90;999.90;;;12.10;99.90;;;;;;5074916;28;20024;-68
2024/02/07 06:25:56;;;;;;;1999.90;999.90;;;12.00;99.90;;;;;;5086041;28;20046;-73
2024/02/07 06:28:22;;;;;;;1999.90;999.90;;;12.00;99.90;;;;;;5079941;28;20025;-68
2024/02/07 06:30:48;;;;;;;1999.90;999.90;;;12.00;99.90;;;;;;5075169;28;20036;-73
2024/02/07 06:33:15;;;;;;;1999.90;999.90;;;12.00;99.90;;;;;;5072598;28;20021;-67
2024/02/07 06:35:40;;;;;;;1999.90;999.90;;;12.10;99.90;;;;;;5074453;28;20561;-68
2024/02/07 06:38:06;;;;;;;1999.90;999.90;;;12.10;99.90;;;;;;5071569;28;20050;-69
2024/02/07 06:40:32;;;;;;;1999.90;999.90;;;12.00;99.90;;;;;;5074013;28;20029;-73
2024/02/07 06:42:57;;;;;;;1999.90;999.90;;;12.10;99.90;;;;;;5074331;28;20037;-68
2024/02/07 06:45:23;;;;;;;1999.90;999.90;;;12.00;99.90;;;;;;5088305;28;20028;-74
2024/02/07 06:47:48;;;;;;;1999.90;999.90;;;12.10;99.90;;;;;;5094084;28;20127;-69
2024/02/07 06:50:14;;;;;;;1999.90;999.90;;;12.10;99.90;;;;;;5092649;28;20475;-69
2024/02/07 06:52:41;;;;;;;1999.90;999.90;;;12.00;99.90;;;;;;5074074;28;20056;-68
2024/02/07 06:55:07;;;;;;;1999.90;999.90;;;12.10;99.90;;;;;;5074752;28;20037;-69
2024/02/07 06:57:32;;;;;;;1999.90;999.90;;;12.00;99.90;;;;;;5075894;28;20085;-69
2024/02/07 06:59:58;;;;;;;1999.90;999.90;;;12.00;99.90;;;;;;5082594;28;20020;-69
2024/02/07 07:02:23;;;;;;;1999.90;999.90;;;12.00;99.90;;;;;;5072365;28;20549;-68
2024/02/07 07:04:49;;;;;;;1999.90;999.90;;;12.00;99.90;;;;;;5072969;28;20045;-69
2024/02/07 07:07:16;;;;;;;1999.90;999.90;;;12.00;99.90;;;;;;5072524;28;20476;-69
2024/02/07 07:09:42;;;;;;;1999.90;999.90;;;12.10;99.90;;;;;;5073597;28;20036;-69
2024/02/07 07:12:08;;;;;;;1999.90;999.90;;;12.00;99.90;;;;;;5073718;28;20103;-69
2024/02/07 07:14:40;;;;;;;1999.90;999.90;;;12.00;99.90;;;;;;5080682;28;20049;-69
2024/02/07 07:17:06;;;;;;;1999.90;999.90;;;12.00;99.90;;;;;;5073184;28;20536;-74
2024/02/07 07:19:31;;;;;;;1999.90;999.90;;;12.10;99.90;;;;;;5085875;28;20036;-75
2024/02/07 07:21:57;;;;;;;1999.90;999.90;;;12.10;99.90;;;;;;5077809;28;20028;-74
2024/02/07 07:24:22;;;;;;;1999.90;999.90;;;12.10;99.90;;;;;;5089620;28;20376;-69
2024/02/07 07:26:48;;;;;;;1999.90;999.90;;;12.00;99.90;;;;;;5076619;28;20041;-69
2024/02/07 07:29:14;;;;;;;1999.90;999.90;;;12.00;99.90;;;;;;5078602;28;20044;-69
2024/02/07 07:31:39;;;;;;;1999.90;999.90;;;12.00;99.90;;;;;;5075727;28;20877;-75
2024/02/07 07:34:05;;;;;;;1999.90;999.90;;;12.00;99.90;;;;;;5072019;28;20027;-74
2024/02/07 07:36:30;;;;;;;1999.90;999.90;;;12.00;99.90;;;;;;5075060;28;20032;-68
2024/02/07 07:38:56;;;;;;;1999.90;999.90;;;12.00;99.90;;;;;;5073304;28;20035;-74
2024/02/07 07:41:22;;;;;;;1999.90;999.90;;;12.00;99.90;;;;;;5080705;28;20051;-70
2024/02/07 07:43:47;;;;;;;1999.90;999.90;;;12.00;99.90;;;;;;5070991;28;20035;-75
2024/02/07 07:46:13;;;;;;;1999.90;999.90;;;12.00;99.90;;;;;;5071933;28;20035;-74
2024/02/07 07:48:38;;;;;;;1999.90;999.90;;;12.00;99.90;;;;;;5073219;28;20035;-69
2024/02/07 07:51:07;;;;;;;1999.90;999.90;;;12.00;99.90;;;;;;5070903;28;20123;-69
2024/02/07 07:53:33;;;;;;;1999.90;999.90;;;12.10;99.90;;;;;;5070937;28;20099;-69
2024/02/07 07:55:59;;;;;;;1999.90;999.90;;;12.10;99.90;;;;;;5078721;28;20507;-69
2024/02/07 07:58:25;;;;;;;1999.90;999.90;;;12.10;99.90;;;;;;5071032;28;20033;-75
2024/02/07 08:00:50;;;;;;;1999.90;999.90;;;12.10;99.90;;;;;;5073171;28;20028;-67
2024/02/07 08:03:16;;;;;;;1999.90;999.90;;;12.10;99.90;;;;;;5078450;28;20491;-75
2024/02/07 08:05:42;;;;;;;1999.90;999.90;;;12.10;99.90;;;;;;5073304;28;20044;-69
2024/02/07 08:08:08;;;;;;;1999.90;999.90;;;12.10;99.90;;;;;;5088438;28;20508;-67
2024/02/07 08:10:37;;;;;;;1999.90;999.90;;;12.10;99.90;;;;;;5071517;28;20039;-73
2024/02/07 08:13:04;;;;;;;1999.90;999.90;;;12.10;99.90;;;;;;5073981;28;20035;-73
2024/02/07 08:15:29;;;;;;;1999.90;999.90;;;12.10;99.90;;;;;;5070693;28;20029;-68
2024/02/07 08:17:57;;;;;;;1999.90;999.90;;;12.20;99.90;;;;;;5070809;28;20055;-67
2024/02/07 08:20:24;;;;;;;1999.90;999.90;;;12.20;99.90;;;;;;5070944;28;20046;-72
2024/02/07 08:22:49;;;;;;;1999.90;999.90;;;12.10;99.90;;;;;;5070437;28;20394;-73
2024/02/07 08:25:15;;;;;;;1999.90;999.90;;;12.10;99.90;;;;;;5070840;28;20024;-74
2024/02/07 08:27:41;;;;;;;1999.90;999.90;;;12.20;99.90;;;;;;5066457;28;20380;-68
2024/02/07 08:30:07;;;;;;;1999.90;999.90;;;12.10;99.90;;;;;;5073746;28;20058;-68
2024/02/07 08:32:33;;;;;;;1999.90;999.90;;;12.10;99.90;;;;;;5072207;28;20086;-74
2024/02/07 08:34:59;;;;;;;1999.90;999.90;;;12.10;99.90;;;;;;5070334;28;20020;-73
2024/02/07 08:37:26;;;;;;;1999.90;999.90;;;12.10;99.90;;;;;;5069337;28;20035;-67
2024/02/07 08:39:53;;;;;;;1999.90;999.90;;;12.10;99.90;;;;;;5066876;28;20135;-73
2024/02/07 08:42:18;;;;;;;1999.90;999.90;;;12.10;99.90;;;;;;5068942;28;20051;-67
2024/02/07 08:44:44;;;;;;;1999.90;999.90;;;12.10;99.90;;;;;;5069156;28;20487;-69
2024/02/07 08:47:10;;;;;;;1999.90;999.90;;;12.00;99.90;;;;;;5072333;28;20032;-73
2024/02/07 08:49:35;;;;;;;1999.90;999.90;;;12.00;99.90;;;;;;5069064;28;20116;-73
2024/02/07 08:52:01;;;;;;;1999.90;999.90;;;12.00;99.90;;;;;;5070025;28;20065;-74
2024/02/07 08:54:27;;;;;;;1999.90;999.90;;;12.00;99.90;;;;;;5070252;28;20063;-67
2024/02/07 08:56:52;;;;;;;1999.90;999.90;;;12.00;99.90;;;;;;5069237;28;20036;-68
2024/02/07 08:59:18;;;;;;;1999.90;999.90;;;12.00;99.90;;;;;;5069659;28;20391;-73
2024/02/07 09:01:43;;;;;;;1999.90;999.90;;;12.00;99.90;;;;;;5071609;28;20027;-73
2024/02/07 09:04:09;;;;;;;1999.90;999.90;;;12.00;99.90;;;;;;5084157;28;20028;-73
2024/02/07 09:06:35;;;;;;;1999.90;999.90;;;12.10;99.90;;;;;;5075985;28;20044;-73
2024/02/07 09:09:02;;;;;;;1999.90;999.90;;;12.00;99.90;;;;;;5069428;28;20058;-67
2024/02/07 09:11:28;;;;;;;1999.90;999.90;;;12.10;99.90;;;;;;5068704;28;20625;-68
2024/02/07 09:13:54;;;;;;;1999.90;999.90;;;12.10;99.90;;;;;;5069508;28;20036;-74
2024/02/07 09:16:20;;;;;;;1999.90;999.90;;;12.10;99.90;;;;;;5071430;28;20021;-74
2024/02/07 09:18:45;;;;;;;1999.90;999.90;;;12.00;99.90;;;;;;5069214;28;20047;-67
2024/02/07 09:21:11;;;;;;;1999.90;999.90;;;12.00;99.90;;;;;;5072371;28;20397;-68
2024/02/07 09:23:37;;;;;;;1999.90;999.90;;;12.00;99.90;;;;;;5073232;28;20028;-68
2024/02/07 09:26:04;;;;;;;1999.90;999.90;;;12.00;99.90;;;;;;5073517;28;20127;-68
2024/02/07 09:28:30;;;;;;;1999.90;999.90;;;12.00;99.90;;;;;;5082319;28;20527;-71
2024/02/07 09:30:55;;;;;;;1999.90;999.90;;;12.00;99.90;;;;;;5072635;28;20052;-71
2024/02/07 09:33:21;;;;;;;1999.90;999.90;;;12.00;99.90;;;;;;5073859;28;20017;-68
2024/02/07 09:35:47;;;;;;;1999.90;999.90;;;11.90;99.90;;;;;;5076682;28;20020;-75
2024/02/07 09:38:13;;;;;;;1999.90;999.90;;;11.90;99.90;;;;;;5074350;28;20473;-68
2024/02/07 09:40:38;;;;;;;1999.90;999.90;;;11.80;99.90;;;;;;5073372;28;20530;-73
2024/02/07 09:43:05;;;;;;;1999.90;999.90;;;11.90;99.90;;;;;;5076508;28;20039;-75
2024/02/07 09:45:34;;;;;;;1999.90;999.90;;;12.00;99.90;;;;;;5073274;28;20085;-68
2024/02/07 09:48:03;;;;;;;1999.90;999.90;;;12.00;99.90;;;;;;5072915;28;20043;-68
2024/02/07 09:50:28;;;;;;;1999.90;999.90;;;12.00;99.90;;;;;;5072536;28;20519;-68
2024/02/07 09:52:56;;;;;;;1999.90;999.90;;;12.10;99.90;;;;;;5072604;28;20020;-69
2024/02/07 09:55:23;;;;;;;1999.90;999.90;;;12.10;99.90;;;;;;5073376;28;20029;-74
2024/02/07 09:57:50;;;;;;;1999.90;999.90;;;12.10;99.90;;;;;;5072058;28;20035;-68
2024/02/07 10:00:16;;;;;;;1999.90;999.90;;;12.10;99.90;;;;;;5072327;28;20029;-75
2024/02/07 10:02:48;;;;;;;1999.90;999.90;;;12.10;99.90;;;;;;5073311;28;20502;-68
2024/02/07 10:05:20;;;;;;;1999.90;999.90;;;12.10;99.90;;;;;;5092851;28;20056;-68
2024/02/07 10:07:53;;;;;;;1999.90;999.90;;;12.10;99.90;;;;;;5092720;28;20116;-75
2024/02/07 10:10:19;;;;;;;1999.90;999.90;;;12.10;99.90;;;;;;5072604;28;20388;-75
2024/02/07 10:12:45;;;;;;;1999.90;999.90;;;12.10;99.90;;;;;;5072212;28;20031;-68
2024/02/07 10:15:11;;;;;;;1999.90;999.90;;;12.20;99.90;;;;;;5072624;28;20032;-75
2024/02/07 10:17:37;;;;;;;1999.90;999.90;;;12.20;99.90;;;;;;5072290;28;20029;-74
2024/02/07 10:20:12;;;;;;;1999.90;999.90;;;12.20;99.90;;;;;;5083442;28;20531;-75
2024/02/07 10:22:41;;;;;;;1999.90;999.90;;;12.30;99.90;;;;;;5091031;28;20387;-69
2024/02/07 10:25:12;;;;;;;1999.90;999.90;;;12.30;99.90;;;;;;5093270;28;20024;-68
2024/02/07 10:27:38;;;;;;;1999.90;999.90;;;12.30;99.90;;;;;;5084589;28;20043;-68
2024/02/07 10:30:04;;;;;;;1999.90;999.90;;;12.30;99.90;;;;;;5076171;28;20415;-68
2024/02/07 10:32:30;;;;;;;1999.90;999.90;;;12.40;99.90;;;;;;5072287;28;20033;-70
2024/02/07 10:34:56;;;;;;;1999.90;999.90;;;12.40;99.90;;;;;;5071779;28;20538;-74
2024/02/07 10:37:22;;;;;;;1999.90;999.90;;;12.40;99.90;;;;;;5072398;28;20513;-74
2024/02/07 10:39:51;;;;;;;1999.90;999.90;;;12.40;99.90;;;;;;5073035;28;20073;-75
2024/02/07 10:42:17;;;;;;;1999.90;999.90;;;12.50;99.90;;;;;;5073218;28;20495;-69
2024/02/07 10:44:43;;;;;;;1999.90;999.90;;;12.50;99.90;;;;;;5078623;28;20111;-74
2024/02/07 10:47:10;;;;;;;1999.90;999.90;;;12.50;99.90;;;;;;5072372;28;20108;-74
2024/02/07 10:49:36;;;;;;;1999.90;999.90;;;12.50;99.90;;;;;;5072310;28;20399;-69
2024/02/07 10:52:02;;;;;;;1999.90;999.90;;;12.60;99.90;;;;;;5071699;28;20061;-70
2024/02/07 10:54:29;;;;;;;1999.90;999.90;;;12.60;99.90;;;;;;5071713;28;20020;-69
2024/02/07 10:56:59;;;;;;;1999.90;999.90;;;12.60;99.90;;;;;;5072744;28;20055;-68
2024/02/07 10:59:26;;;;;;;1999.90;999.90;;;12.70;99.90;;;;;;5074986;28;20097;-73
2024/02/07 11:01:52;;;;;;;1999.90;999.90;;;12.80;99.90;;;;;;5068889;28;20036;-73
2024/02/07 11:04:18;;;;;;;1999.90;999.90;;;12.90;99.90;;;;;;5071592;28;20047;-74
2024/02/07 11:06:45;;;;;;;1999.90;999.90;;;13.00;99.90;;;;;;5071331;28;20044;-69
2024/02/07 11:09:12;;;;;;;1999.90;999.90;;;13.00;99.90;;;;;;5072977;28;20024;-68
2024/02/07 11:11:39;;;;;;;1999.90;999.90;;;13.00;99.90;;;;;;5075287;28;20537;-73
2024/02/07 11:14:05;;;;;;;1999.90;999.90;;;13.10;99.90;;;;;;5075670;28;20035;-73
2024/02/07 11:16:31;;;;;;;1999.90;999.90;;;13.10;99.90;;;;;;5068437;28;20036;-69
2024/02/07 11:18:58;;;;;;;1999.90;999.90;;;13.10;99.90;;;;;;5073322;28;20488;-68
2024/02/07 11:21:32;;;;;;;1999.90;999.90;;;13.20;99.90;;;;;;5070336;28;20035;-68
2024/02/07 11:24:00;;;;;;;1999.90;999.90;;;13.20;99.90;;;;;;5070572;28;20483;-73
2024/02/07 11:26:26;;;;;;;1999.90;999.90;;;13.30;99.90;;;;;;5066383;28;20058;-73
2024/02/07 11:28:51;;;;;;;1999.90;999.90;;;13.40;99.90;;;;;;5073412;28;20090;-68
2024/02/07 11:31:17;;;;;;;1999.90;999.90;;;13.30;99.90;;;;;;5069552;28;20491;-68
2024/02/07 11:33:47;;;;;;;1999.90;999.90;;;13.30;99.90;;;;;;5076990;28;20115;-68
2024/02/07 11:36:17;;;;;;;1999.90;999.90;;;13.30;99.90;;;;;;5070517;28;20032;-69
2024/02/07 11:38:53;;;;;;;1999.90;999.90;;;13.40;99.90;;;;;;5068414;28;20432;-74
2024/02/07 11:41:21;;;;;;;1999.90;999.90;;;13.40;99.90;;;;;;5069169;28;20024;-71
2024/02/07 11:43:53;;;;;;;1999.90;999.90;;;13.50;99.90;;;;;;5071956;28;20036;-75
2024/02/07 11:46:20;;;;;;;1999.90;999.90;;;13.50;99.90;;;;;;5069484;28;20020;-75
2024/02/07 11:48:53;;;;;;;1999.90;999.90;;;13.60;99.90;;;;;;5070509;28;20024;-69
2024/02/07 11:51:23;;;;;;;1999.90;999.90;;;13.60;99.90;;;;;;5067288;28;20035;-75
2024/02/07 11:53:48;;;;;;;1999.90;999.90;;;13.70;99.90;;;;;;5067903;28;20399;-68
2024/02/07 11:56:21;;;;;;;1999.90;999.90;;;13.70;99.90;;;;;;5070185;28;20032;-69
2024/02/07 11:58:49;;;;;;;1999.90;999.90;;;13.70;99.90;;;;;;5090083;28;20059;-69
2024/02/07 12:01:16;;;;;;;1999.90;999.90;;;13.80;99.90;;;;;;5067942;28;20032;-69
2024/02/07 12:03:42;;;;;;;1999.90;999.90;;;13.70;99.90;;;;;;5067231;28;20182;-75
2024/02/07 12:06:13;;;;;;;1999.90;999.90;;;13.60;99.90;;;;;;5103109;27;1308454;-77
2024/02/07 12:08:39;;;;;;;1999.90;999.90;;;13.60;99.90;;;;;;5121518;28;20035;-76
2024/02/07 12:11:08;;;;;;;1999.90;999.90;;;13.70;99.90;;;;;;5114471;28;20031;-76
2024/02/07 12:13:35;;;;;;;1999.90;999.90;;;13.70;99.90;;;;;;5122314;28;20038;-76
2024/02/07 12:16:09;;;;;;;1999.90;999.90;;;13.70;99.90;;;;;;5127300;28;20031;-75
2024/02/07 12:18:35;;;;;;;1999.90;999.90;;;13.70;99.90;;;;;;5122106;28;20019;-76
2024/02/07 12:21:02;;;;;;;1999.90;999.90;;;13.60;99.90;;;;;;5118266;28;20096;-74
2024/02/07 12:23:29;;;;;;;1999.90;999.90;;;13.60;99.90;;;;;;5115842;27;20656;-76
2024/02/07 12:26:02;;;;;;;1999.90;999.90;;;13.60;99.90;;;;;;5113315;28;20028;-76
2024/02/07 12:28:28;;;;;;;1999.90;999.90;;;13.60;99.90;;;;;;5115943;28;20028;-76
2024/02/07 12:30:58;;;;;;;1999.90;999.90;;;13.50;99.90;;;;;;5120636;28;20078;-74
2024/02/07 12:33:24;;;;;;;1999.90;999.90;;;13.50;99.90;;;;;;5116445;27;20072;-77
2024/02/07 12:35:53;;;;;;;1999.90;999.90;;;13.60;99.90;;;;;;5124821;27;20102;-77
2024/02/07 12:38:19;;;;;;;1999.90;999.90;;;13.70;99.90;;;;;;5123627;27;20046;-76
2024/02/07 12:40:49;;;;;;;1999.90;999.90;;;13.70;99.90;;;;;;5120250;28;20410;-75
2024/02/07 12:43:22;;;;;;;1999.90;999.90;;;13.50;99.90;;;;;;5119161;28;20023;-76
2024/02/07 12:45:54;;;;;;;1999.90;999.90;;;13.50;99.90;;;;;;5135674;27;20038;-77
2024/02/07 12:48:21;;;;;;;1999.90;999.90;;;13.50;99.90;;;;;;5119099;28;20024;-77
2024/02/07 12:50:47;;;;;;;1999.90;999.90;;;13.50;99.90;;;;;;5115414;28;20020;-77
2024/02/07 12:53:13;;;;;;;1999.90;999.90;;;13.50;99.90;;;;;;5124032;28;20080;-75
2024/02/07 12:55:39;;;;;;;1999.90;999.90;;;13.60;99.90;;;;;;5114949;28;20051;-77
2024/02/07 12:58:04;;;;;;;1999.90;999.90;;;13.60;99.90;;;;;;5119462;28;20497;-76
2024/02/07 13:00:31;;;;;;;1999.90;999.90;;;13.60;99.90;;;;;;5118634;28;20076;-76
2024/02/07 13:02:57;;;;;;;1999.90;999.90;;;13.60;99.90;;;;;;5112469;28;20490;-78
2024/02/07 13:05:23;;;;;;;1999.90;999.90;;;13.60;99.90;;;;;;5108372;28;20062;-78